createdAt,value
2022-11-27T00:04:51.618Z,9.37
2022-11-27T00:14:55.674Z,11.43
2022-11-27T00:24:58.358Z,13.00
2022-11-27T00:35:00.859Z,13.70
2022-11-27T00:45:03.568Z,14.77
2022-11-27T00:55:06.477Z,9.33
2022-11-27T01:05:09.502Z,10.73
2022-11-27T01:15:12.188Z,9.17
2022-11-27T01:25:14.772Z,10.77
2022-11-27T01:35:17.383Z,12.07
2022-11-27T01:45:21.645Z,12.07
2022-11-27T01:55:31.087Z,7.87
2022-11-27T02:05:34.066Z,11.37
2022-11-27T02:16:18.237Z,10.50
2022-11-27T02:26:55.253Z,10.80
2022-11-27T02:37:19.576Z,11.30
2022-11-27T02:47:23.405Z,9.87
2022-11-27T02:57:27.365Z,11.67
2022-11-27T03:07:45.868Z,9.77
2022-11-27T03:18:19.149Z,8.60
2022-11-27T03:28:23.254Z,9.00
2022-11-27T03:38:25.738Z,6.40
2022-11-27T03:48:46.503Z,7.30
2022-11-27T03:59:14.119Z,8.60
2022-11-27T04:09:16.702Z,9.97
2022-11-27T04:19:19.134Z,9.07
2022-11-27T04:29:22.378Z,8.00
2022-11-27T04:39:24.897Z,8.57
2022-11-27T04:49:27.522Z,8.13
2022-11-27T04:59:30.523Z,6.37
2022-11-27T05:09:33.010Z,7.27
2022-11-27T05:19:35.433Z,6.63
2022-11-27T05:29:40.311Z,6.70
2022-11-27T05:39:42.969Z,6.90
2022-11-27T05:49:45.480Z,8.10
2022-11-27T05:59:48.159Z,7.07
2022-11-27T06:09:50.872Z,6.63
2022-11-27T06:19:53.791Z,7.27
2022-11-27T06:29:56.539Z,7.30
2022-11-27T06:39:58.890Z,7.10
2022-11-27T06:50:01.402Z,7.50
2022-11-27T07:00:06.187Z,7.37
2022-11-27T07:10:09.613Z,7.50
2022-11-27T07:20:12.703Z,11.13
2022-11-27T07:30:17.567Z,7.30
2022-11-27T07:40:20.217Z,7.60
2022-11-27T07:50:23.419Z,8.90
2022-11-27T08:00:26.367Z,8.53
2022-11-27T08:10:29.011Z,7.67
2022-11-27T08:20:31.488Z,11.10
2022-11-27T08:30:33.787Z,15.57
2022-11-27T08:40:36.627Z,16.03
2022-11-27T08:50:39.687Z,14.10
2022-11-27T09:00:42.797Z,15.20
2022-11-27T09:10:46.807Z,15.83
2022-11-27T09:21:04.091Z,12.53
2022-11-27T09:31:08.761Z,14.03
2022-11-27T09:41:11.960Z,16.77
2022-11-27T09:51:34.720Z,10.63
2022-11-27T10:01:45.281Z,14.73
2022-11-27T10:12:10.373Z,14.57
2022-11-27T10:22:28.669Z,13.37
2022-11-27T10:43:18.648Z,13.63
2022-11-27T10:53:32.463Z,13.20
2022-11-27T11:03:36.546Z,13.10
2022-11-27T11:13:42.180Z,12.23
2022-11-27T11:23:48.327Z,11.67
2022-11-27T11:33:58.917Z,12.67
2022-11-27T11:44:03.038Z,11.73
2022-11-27T11:54:35.893Z,13.40
2022-11-27T12:05:08.011Z,12.13
2022-11-27T12:15:35.134Z,10.90
2022-11-27T12:26:02.598Z,11.20
2022-11-27T12:36:28.957Z,12.20
2022-11-27T12:47:00.423Z,12.67
2022-11-27T12:57:08.643Z,12.00
2022-11-27T13:07:21.427Z,13.07
2022-11-27T13:17:30.381Z,12.63
2022-11-27T13:27:37.858Z,14.40
2022-11-27T13:37:42.754Z,12.03
2022-11-27T13:47:46.388Z,11.97
2022-11-27T13:57:54.143Z,11.80
2022-11-27T14:07:57.884Z,13.57
2022-11-27T14:18:22.427Z,11.73
2022-11-27T14:28:26.597Z,11.50
2022-11-27T14:38:31.215Z,13.27
2022-11-27T14:48:48.851Z,13.03
2022-11-27T14:58:57.841Z,13.23
2022-11-27T15:09:29.705Z,13.10
2022-11-27T15:19:31.764Z,11.87
2022-11-27T15:29:37.581Z,13.20
2022-11-27T15:39:48.551Z,13.63
2022-11-27T15:49:51.848Z,15.00
2022-11-27T15:59:54.760Z,14.20
2022-11-27T16:09:58.511Z,14.13
2022-11-27T16:20:01.630Z,15.97
2022-11-27T16:30:05.379Z,17.40
2022-11-27T16:40:08.785Z,14.63
2022-11-27T16:50:14.809Z,14.30
2022-11-27T17:00:18.232Z,13.97
2022-11-27T17:10:21.508Z,14.60
2022-11-27T17:20:25.013Z,14.40
2022-11-27T17:30:28.541Z,15.50
2022-11-27T17:40:31.133Z,13.80
2022-11-27T17:50:33.982Z,13.17
2022-11-27T18:00:40.435Z,13.67
2022-11-27T18:10:43.800Z,13.00
2022-11-27T18:20:47.160Z,12.90
2022-11-27T18:30:50.835Z,13.30
2022-11-27T18:40:53.770Z,10.67
2022-11-27T18:51:10.811Z,13.50
2022-11-27T19:01:17.356Z,11.37
2022-11-27T19:11:24.465Z,11.83
2022-11-27T19:21:31.746Z,13.30
2022-11-27T19:31:35.356Z,13.10
2022-11-27T19:41:38.244Z,12.73
2022-11-27T19:51:41.506Z,12.90
2022-11-27T20:01:45.222Z,10.63
2022-11-27T20:11:49.418Z,11.57
2022-11-27T20:21:52.167Z,13.27
2022-11-27T20:31:55.212Z,12.10
2022-11-27T20:41:57.894Z,12.50
2022-11-27T20:52:03.993Z,10.77
2022-11-27T21:02:06.382Z,13.93
2022-11-27T21:12:11.497Z,12.93
2022-11-27T21:22:14.780Z,12.37
2022-11-27T21:32:23.038Z,13.40
2022-11-27T21:42:26.929Z,12.03
2022-11-27T21:52:30.208Z,13.33
2022-11-27T22:02:34.387Z,13.30
2022-11-27T22:12:37.437Z,12.17
2022-11-27T22:22:40.063Z,12.10
2022-11-27T22:32:42.890Z,11.37
2022-11-27T22:42:46.105Z,12.37
2022-11-27T22:52:48.870Z,13.40
2022-11-27T23:02:51.718Z,11.77
2022-11-27T23:12:54.815Z,10.17
2022-11-27T23:22:57.654Z,11.63
2022-11-27T23:33:00.179Z,11.53
2022-11-27T23:43:02.686Z,14.00
2022-11-27T23:53:05.108Z,11.50
